sensor_id;sensor_type;location;lat;lon;timestamp;P1;durP1;ratioP1;P2;durP2;ratioP2
37655;SDS011;23498;50.958;3.124;2023-12-14T00:01:44;64.07;;;24.27;;
37655;SDS011;23498;50.958;3.124;2023-12-14T00:04:13;59.03;;;22.85;;
37655;SDS011;23498;50.958;3.124;2023-12-14T00:06:39;59.50;;;22.40;;
37655;SDS011;23498;50.958;3.124;2023-12-14T00:09:06;56.95;;;21.83;;
37655;SDS011;23498;50.958;3.124;2023-12-14T00:11:37;50.80;;;20.63;;
37655;SDS011;23498;50.958;3.124;2023-12-14T00:14:03;49.20;;;20.15;;
37655;SDS011;23498;50.958;3.124;2023-12-14T00:16:29;45.13;;;17.33;;
37655;SDS011;23498;50.958;3.124;2023-12-14T00:18:55;48.13;;;18.63;;
37655;SDS011;23498;50.958;3.124;2023-12-14T00:21:21;40.05;;;16.17;;
37655;SDS011;23498;50.958;3.124;2023-12-14T00:23:47;35.95;;;14.68;;
37655;SDS011;23498;50.958;3.124;2023-12-14T00:26:13;31.10;;;13.30;;
37655;SDS011;23498;50.958;3.124;2023-12-14T00:28:39;31.33;;;12.85;;
37655;SDS011;23498;50.958;3.124;2023-12-14T00:31:05;22.95;;;11.68;;
37655;SDS011;23498;50.958;3.124;2023-12-14T00:33:31;26.10;;;12.93;;
37655;SDS011;23498;50.958;3.124;2023-12-14T00:35:57;30.10;;;12.85;;
37655;SDS011;23498;50.958;3.124;2023-12-14T00:38:23;32.33;;;14.55;;
37655;SDS011;23498;50.958;3.124;2023-12-14T00:40:49;27.42;;;14.45;;
37655;SDS011;23498;50.958;3.124;2023-12-14T00:43:15;32.22;;;14.77;;
37655;SDS011;23498;50.958;3.124;2023-12-14T00:45:41;26.30;;;14.80;;
37655;SDS011;23498;50.958;3.124;2023-12-14T00:48:07;30.75;;;14.98;;
37655;SDS011;23498;50.958;3.124;2023-12-14T00:50:33;32.38;;;16.10;;
37655;SDS011;23498;50.958;3.124;2023-12-14T00:53:00;30.58;;;15.88;;
37655;SDS011;23498;50.958;3.124;2023-12-14T00:55:25;29.80;;;14.80;;
37655;SDS011;23498;50.958;3.124;2023-12-14T00:57:51;21.90;;;12.18;;
37655;SDS011;23498;50.958;3.124;2023-12-14T01:00:18;28.95;;;12.88;;
37655;SDS011;23498;50.958;3.124;2023-12-14T01:02:44;29.13;;;13.43;;
37655;SDS011;23498;50.958;3.124;2023-12-14T01:05:10;23.20;;;11.70;;
37655;SDS011;23498;50.958;3.124;2023-12-14T01:07:36;25.55;;;12.52;;
37655;SDS011;23498;50.958;3.124;2023-12-14T01:10:02;25.75;;;11.73;;
37655;SDS011;23498;50.958;3.124;2023-12-14T01:12:28;22.83;;;10.30;;
37655;SDS011;23498;50.958;3.124;2023-12-14T01:14:55;16.10;;;9.13;;
37655;SDS011;23498;50.958;3.124;2023-12-14T01:17:21;21.45;;;9.95;;
37655;SDS011;23498;50.958;3.124;2023-12-14T01:19:47;17.83;;;8.23;;
37655;SDS011;23498;50.958;3.124;2023-12-14T01:22:13;13.95;;;7.55;;
37655;SDS011;23498;50.958;3.124;2023-12-14T01:24:39;16.80;;;7.40;;
37655;SDS011;23498;50.958;3.124;2023-12-14T01:27:05;19.73;;;7.32;;
37655;SDS011;23498;50.958;3.124;2023-12-14T01:29:31;16.70;;;7.38;;
37655;SDS011;23498;50.958;3.124;2023-12-14T01:31:57;17.20;;;6.95;;
37655;SDS011;23498;50.958;3.124;2023-12-14T01:34:23;13.85;;;6.18;;
37655;SDS011;23498;50.958;3.124;2023-12-14T01:36:49;21.27;;;6.20;;
37655;SDS011;23498;50.958;3.124;2023-12-14T01:39:15;13.18;;;5.55;;
37655;SDS011;23498;50.958;3.124;2023-12-14T01:41:41;17.40;;;6.25;;
37655;SDS011;23498;50.958;3.124;2023-12-14T01:44:07;12.23;;;5.70;;
37655;SDS011;23498;50.958;3.124;2023-12-14T01:46:33;14.05;;;5.20;;
37655;SDS011;23498;50.958;3.124;2023-12-14T01:48:59;12.43;;;5.55;;
37655;SDS011;23498;50.958;3.124;2023-12-14T01:51:25;13.82;;;5.28;;
37655;SDS011;23498;50.958;3.124;2023-12-14T01:53:51;10.25;;;4.70;;
37655;SDS011;23498;50.958;3.124;2023-12-14T01:56:17;14.70;;;5.53;;
37655;SDS011;23498;50.958;3.124;2023-12-14T01:58:43;8.43;;;4.70;;
37655;SDS011;23498;50.958;3.124;2023-12-14T02:03:54;13.52;;;4.55;;
37655;SDS011;23498;50.958;3.124;2023-12-14T02:06:20;14.10;;;4.38;;
37655;SDS011;23498;50.958;3.124;2023-12-14T02:08:46;13.25;;;4.75;;
37655;SDS011;23498;50.958;3.124;2023-12-14T02:11:12;14.57;;;5.55;;
37655;SDS011;23498;50.958;3.124;2023-12-14T02:13:38;15.00;;;5.32;;
37655;SDS011;23498;50.958;3.124;2023-12-14T02:16:04;12.52;;;4.35;;
37655;SDS011;23498;50.958;3.124;2023-12-14T02:18:30;13.57;;;4.75;;
37655;SDS011;23498;50.958;3.124;2023-12-14T02:20:56;16.67;;;5.07;;
37655;SDS011;23498;50.958;3.124;2023-12-14T02:23:22;9.70;;;4.43;;
37655;SDS011;23498;50.958;3.124;2023-12-14T02:25:48;9.98;;;4.32;;
37655;SDS011;23498;50.958;3.124;2023-12-14T02:28:14;12.57;;;4.10;;
37655;SDS011;23498;50.958;3.124;2023-12-14T02:30:40;11.88;;;4.10;;
37655;SDS011;23498;50.958;3.124;2023-12-14T02:33:07;10.43;;;3.75;;
37655;SDS011;23498;50.958;3.124;2023-12-14T02:35:33;12.73;;;5.07;;
37655;SDS011;23498;50.958;3.124;2023-12-14T02:37:59;12.02;;;4.43;;
37655;SDS011;23498;50.958;3.124;2023-12-14T02:40:25;14.75;;;4.70;;
37655;SDS011;23498;50.958;3.124;2023-12-14T02:42:51;13.20;;;4.43;;
37655;SDS011;23498;50.958;3.124;2023-12-14T02:45:17;11.38;;;4.10;;
37655;SDS011;23498;50.958;3.124;2023-12-14T02:47:43;12.95;;;4.10;;
37655;SDS011;23498;50.958;3.124;2023-12-14T02:50:09;10.50;;;4.53;;
37655;SDS011;23498;50.958;3.124;2023-12-14T02:52:35;14.45;;;5.10;;
37655;SDS011;23498;50.958;3.124;2023-12-14T02:55:01;11.73;;;4.00;;
37655;SDS011;23498;50.958;3.124;2023-12-14T02:57:27;13.80;;;4.25;;
37655;SDS011;23498;50.958;3.124;2023-12-14T02:59:53;13.15;;;4.95;;
37655;SDS011;23498;50.958;3.124;2023-12-14T03:02:19;11.80;;;4.40;;
37655;SDS011;23498;50.958;3.124;2023-12-14T03:04:45;11.60;;;4.65;;
37655;SDS011;23498;50.958;3.124;2023-12-14T03:07:11;11.90;;;4.72;;
37655;SDS011;23498;50.958;3.124;2023-12-14T03:09:39;13.15;;;4.82;;
37655;SDS011;23498;50.958;3.124;2023-12-14T03:12:06;11.57;;;4.22;;
37655;SDS011;23498;50.958;3.124;2023-12-14T03:14:32;14.13;;;4.68;;
37655;SDS011;23498;50.958;3.124;2023-12-14T03:16:59;16.33;;;5.05;;
37655;SDS011;23498;50.958;3.124;2023-12-14T03:19:26;15.25;;;5.07;;
37655;SDS011;23498;50.958;3.124;2023-12-14T03:21:52;12.85;;;5.00;;
37655;SDS011;23498;50.958;3.124;2023-12-14T03:24:18;15.68;;;5.00;;
37655;SDS011;23498;50.958;3.124;2023-12-14T03:26:44;16.38;;;5.57;;
37655;SDS011;23498;50.958;3.124;2023-12-14T03:29:10;14.43;;;5.00;;
37655;SDS011;23498;50.958;3.124;2023-12-14T03:31:36;11.88;;;4.70;;
37655;SDS011;23498;50.958;3.124;2023-12-14T03:34:02;11.55;;;5.18;;
37655;SDS011;23498;50.958;3.124;2023-12-14T03:36:28;24.08;;;6.38;;
37655;SDS011;23498;50.958;3.124;2023-12-14T03:38:54;12.02;;;4.75;;
37655;SDS011;23498;50.958;3.124;2023-12-14T03:41:20;10.15;;;5.25;;
37655;SDS011;23498;50.958;3.124;2023-12-14T03:43:46;13.48;;;4.75;;
37655;SDS011;23498;50.958;3.124;2023-12-14T03:46:12;12.65;;;4.82;;
37655;SDS011;23498;50.958;3.124;2023-12-14T03:48:38;17.48;;;4.80;;
37655;SDS011;23498;50.958;3.124;2023-12-14T03:51:05;10.73;;;4.93;;
37655;SDS011;23498;50.958;3.124;2023-12-14T03:53:31;14.55;;;4.55;;
37655;SDS011;23498;50.958;3.124;2023-12-14T03:56:00;21.00;;;5.38;;
37655;SDS011;23498;50.958;3.124;2023-12-14T03:58:26;14.27;;;5.80;;
37655;SDS011;23498;50.958;3.124;2023-12-14T04:00:52;12.85;;;4.60;;
37655;SDS011;23498;50.958;3.124;2023-12-14T04:03:18;11.23;;;4.95;;
37655;SDS011;23498;50.958;3.124;2023-12-14T04:05:44;13.55;;;4.13;;
37655;SDS011;23498;50.958;3.124;2023-12-14T04:08:10;12.68;;;4.75;;
37655;SDS011;23498;50.958;3.124;2023-12-14T04:10:36;12.45;;;4.50;;
37655;SDS011;23498;50.958;3.124;2023-12-14T04:13:02;10.63;;;4.78;;
37655;SDS011;23498;50.958;3.124;2023-12-14T04:15:28;15.68;;;5.78;;
37655;SDS011;23498;50.958;3.124;2023-12-14T04:17:54;12.18;;;5.07;;
37655;SDS011;23498;50.958;3.124;2023-12-14T04:20:20;14.75;;;5.65;;
37655;SDS011;23498;50.958;3.124;2023-12-14T04:22:46;14.88;;;5.35;;
37655;SDS011;23498;50.958;3.124;2023-12-14T04:25:13;15.18;;;5.78;;
37655;SDS011;23498;50.958;3.124;2023-12-14T04:27:39;13.20;;;6.00;;
37655;SDS011;23498;50.958;3.124;2023-12-14T04:30:05;14.65;;;5.80;;
37655;SDS011;23498;50.958;3.124;2023-12-14T04:32:35;14.93;;;6.25;;
37655;SDS011;23498;50.958;3.124;2023-12-14T04:35:01;18.70;;;6.45;;
37655;SDS011;23498;50.958;3.124;2023-12-14T04:37:27;14.68;;;5.88;;
37655;SDS011;23498;50.958;3.124;2023-12-14T04:39:55;17.02;;;6.30;;
37655;SDS011;23498;50.958;3.124;2023-12-14T04:42:21;15.57;;;6.20;;
37655;SDS011;23498;50.958;3.124;2023-12-14T04:44:47;14.13;;;5.68;;
37655;SDS011;23498;50.958;3.124;2023-12-14T04:47:13;16.20;;;6.38;;
37655;SDS011;23498;50.958;3.124;2023-12-14T04:49:39;15.57;;;6.20;;
37655;SDS011;23498;50.958;3.124;2023-12-14T04:52:06;14.38;;;6.20;;
37655;SDS011;23498;50.958;3.124;2023-12-14T04:54:32;14.38;;;5.70;;
37655;SDS011;23498;50.958;3.124;2023-12-14T04:57:00;14.40;;;6.55;;
37655;SDS011;23498;50.958;3.124;2023-12-14T04:59:26;15.07;;;5.68;;
37655;SDS011;23498;50.958;3.124;2023-12-14T05:01:52;15.43;;;5.63;;
37655;SDS011;23498;50.958;3.124;2023-12-14T05:04:18;13.55;;;5.80;;
37655;SDS011;23498;50.958;3.124;2023-12-14T05:06:44;14.57;;;5.63;;
37655;SDS011;23498;50.958;3.124;2023-12-14T05:09:10;13.10;;;5.65;;
37655;SDS011;23498;50.958;3.124;2023-12-14T05:11:36;14.25;;;6.13;;
37655;SDS011;23498;50.958;3.124;2023-12-14T05:14:02;12.45;;;5.95;;
37655;SDS011;23498;50.958;3.124;2023-12-14T05:16:28;11.27;;;5.35;;
37655;SDS011;23498;50.958;3.124;2023-12-14T05:18:55;10.82;;;4.95;;
37655;SDS011;23498;50.958;3.124;2023-12-14T05:21:24;14.13;;;5.18;;
37655;SDS011;23498;50.958;3.124;2023-12-14T05:23:50;10.18;;;4.88;;
37655;SDS011;23498;50.958;3.124;2023-12-14T05:26:16;14.00;;;5.80;;
37655;SDS011;23498;50.958;3.124;2023-12-14T05:28:42;10.82;;;5.18;;
37655;SDS011;23498;50.958;3.124;2023-12-14T05:31:08;12.85;;;5.95;;
37655;SDS011;23498;50.958;3.124;2023-12-14T05:33:38;14.27;;;6.18;;
37655;SDS011;23498;50.958;3.124;2023-12-14T05:36:04;14.95;;;5.93;;
37655;SDS011;23498;50.958;3.124;2023-12-14T05:38:34;13.50;;;7.32;;
37655;SDS011;23498;50.958;3.124;2023-12-14T05:41:00;14.07;;;6.53;;
37655;SDS011;23498;50.958;3.124;2023-12-14T05:43:26;13.15;;;6.40;;
37655;SDS011;23498;50.958;3.124;2023-12-14T05:45:52;18.38;;;6.35;;
37655;SDS011;23498;50.958;3.124;2023-12-14T05:48:18;16.95;;;6.25;;
37655;SDS011;23498;50.958;3.124;2023-12-14T05:50:44;14.45;;;6.68;;
37655;SDS011;23498;50.958;3.124;2023-12-14T05:53:10;13.88;;;7.05;;
37655;SDS011;23498;50.958;3.124;2023-12-14T05:55:36;13.98;;;6.25;;
37655;SDS011;23498;50.958;3.124;2023-12-14T05:58:03;13.90;;;6.38;;
37655;SDS011;23498;50.958;3.124;2023-12-14T06:00:29;14.82;;;6.10;;
37655;SDS011;23498;50.958;3.124;2023-12-14T06:02:55;12.57;;;5.80;;
37655;SDS011;23498;50.958;3.124;2023-12-14T06:05:21;14.95;;;6.35;;
37655;SDS011;23498;50.958;3.124;2023-12-14T06:07:47;18.05;;;6.88;;
37655;SDS011;23498;50.958;3.124;2023-12-14T06:10:13;17.23;;;7.57;;
37655;SDS011;23498;50.958;3.124;2023-12-14T06:12:39;18.65;;;7.40;;
37655;SDS011;23498;50.958;3.124;2023-12-14T06:15:06;19.35;;;7.13;;
37655;SDS011;23498;50.958;3.124;2023-12-14T06:17:32;16.50;;;6.53;;
37655;SDS011;23498;50.958;3.124;2023-12-14T06:19:59;17.05;;;7.45;;
37655;SDS011;23498;50.958;3.124;2023-12-14T06:22:25;16.15;;;7.10;;
37655;SDS011;23498;50.958;3.124;2023-12-14T06:24:51;15.63;;;7.00;;
37655;SDS011;23498;50.958;3.124;2023-12-14T06:27:17;16.40;;;6.95;;
37655;SDS011;23498;50.958;3.124;2023-12-14T06:29:43;13.07;;;6.75;;
37655;SDS011;23498;50.958;3.124;2023-12-14T06:32:10;14.40;;;6.00;;
37655;SDS011;23498;50.958;3.124;2023-12-14T06:34:36;13.50;;;6.80;;
37655;SDS011;23498;50.958;3.124;2023-12-14T06:37:02;12.75;;;6.05;;
37655;SDS011;23498;50.958;3.124;2023-12-14T06:39:28;13.57;;;7.00;;
37655;SDS011;23498;50.958;3.124;2023-12-14T06:41:54;16.35;;;7.30;;
37655;SDS011;23498;50.958;3.124;2023-12-14T06:44:20;14.35;;;7.07;;
37655;SDS011;23498;50.958;3.124;2023-12-14T06:46:46;15.57;;;7.03;;
37655;SDS011;23498;50.958;3.124;2023-12-14T06:49:12;14.07;;;6.72;;
37655;SDS011;23498;50.958;3.124;2023-12-14T06:51:38;14.82;;;6.90;;
37655;SDS011;23498;50.958;3.124;2023-12-14T06:54:04;19.10;;;7.32;;
37655;SDS011;23498;50.958;3.124;2023-12-14T06:56:30;14.50;;;6.72;;
37655;SDS011;23498;50.958;3.124;2023-12-14T06:58:56;13.98;;;7.32;;
37655;SDS011;23498;50.958;3.124;2023-12-14T07:01:22;17.73;;;7.60;;
37655;SDS011;23498;50.958;3.124;2023-12-14T07:03:48;18.40;;;7.68;;
37655;SDS011;23498;50.958;3.124;2023-12-14T07:06:14;13.15;;;7.00;;
37655;SDS011;23498;50.958;3.124;2023-12-14T07:08:41;16.27;;;7.80;;
37655;SDS011;23498;50.958;3.124;2023-12-14T07:11:10;18.80;;;8.82;;
37655;SDS011;23498;50.958;3.124;2023-12-14T07:13:37;18.80;;;8.75;;
37655;SDS011;23498;50.958;3.124;2023-12-14T07:16:04;19.45;;;8.55;;
37655;SDS011;23498;50.958;3.124;2023-12-14T07:18:33;17.30;;;8.23;;
37655;SDS011;23498;50.958;3.124;2023-12-14T07:21:02;11.30;;;5.95;;
37655;SDS011;23498;50.958;3.124;2023-12-14T07:23:28;17.33;;;8.38;;
37655;SDS011;23498;50.958;3.124;2023-12-14T07:25:54;18.80;;;9.70;;
37655;SDS011;23498;50.958;3.124;2023-12-14T07:28:23;17.67;;;9.23;;
37655;SDS011;23498;50.958;3.124;2023-12-14T07:30:49;19.08;;;8.85;;
37655;SDS011;23498;50.958;3.124;2023-12-14T07:33:15;24.35;;;9.50;;
37655;SDS011;23498;50.958;3.124;2023-12-14T07:35:41;17.33;;;9.00;;
37655;SDS011;23498;50.958;3.124;2023-12-14T07:38:08;18.23;;;8.93;;
37655;SDS011;23498;50.958;3.124;2023-12-14T07:40:34;19.65;;;9.07;;
37655;SDS011;23498;50.958;3.124;2023-12-14T07:43:00;18.45;;;9.18;;
37655;SDS011;23498;50.958;3.124;2023-12-14T07:45:26;16.23;;;9.40;;
37655;SDS011;23498;50.958;3.124;2023-12-14T07:47:52;20.42;;;9.32;;
37655;SDS011;23498;50.958;3.124;2023-12-14T07:50:18;25.23;;;9.02;;
37655;SDS011;23498;50.958;3.124;2023-12-14T07:52:45;18.95;;;9.00;;
37655;SDS011;23498;50.958;3.124;2023-12-14T07:55:11;21.70;;;9.93;;
37655;SDS011;23498;50.958;3.124;2023-12-14T07:57:39;25.90;;;10.25;;
37655;SDS011;23498;50.958;3.124;2023-12-14T08:00:05;27.98;;;10.27;;
37655;SDS011;23498;50.958;3.124;2023-12-14T08:02:33;23.75;;;9.48;;
37655;SDS011;23498;50.958;3.124;2023-12-14T08:04:59;21.10;;;10.70;;
37655;SDS011;23498;50.958;3.124;2023-12-14T08:07:25;17.98;;;10.13;;
37655;SDS011;23498;50.958;3.124;2023-12-14T08:09:54;26.02;;;10.38;;
37655;SDS011;23498;50.958;3.124;2023-12-14T08:12:20;24.38;;;10.02;;
37655;SDS011;23498;50.958;3.124;2023-12-14T08:14:47;21.75;;;9.63;;
37655;SDS011;23498;50.958;3.124;2023-12-14T08:17:13;21.60;;;10.18;;
37655;SDS011;23498;50.958;3.124;2023-12-14T08:19:39;20.88;;;10.05;;
37655;SDS011;23498;50.958;3.124;2023-12-14T08:22:05;21.42;;;9.30;;
37655;SDS011;23498;50.958;3.124;2023-12-14T08:24:32;23.25;;;9.88;;
37655;SDS011;23498;50.958;3.124;2023-12-14T08:26:58;25.75;;;10.57;;
37655;SDS011;23498;50.958;3.124;2023-12-14T08:29:24;19.90;;;9.85;;
37655;SDS011;23498;50.958;3.124;2023-12-14T08:31:51;25.48;;;10.32;;
37655;SDS011;23498;50.958;3.124;2023-12-14T08:34:17;21.30;;;9.88;;
37655;SDS011;23498;50.958;3.124;2023-12-14T08:36:43;24.83;;;10.25;;
37655;SDS011;23498;50.958;3.124;2023-12-14T08:39:09;22.27;;;10.15;;
37655;SDS011;23498;50.958;3.124;2023-12-14T08:41:35;24.27;;;10.50;;
37655;SDS011;23498;50.958;3.124;2023-12-14T08:44:01;22.80;;;10.02;;
37655;SDS011;23498;50.958;3.124;2023-12-14T08:46:27;23.88;;;10.30;;
37655;SDS011;23498;50.958;3.124;2023-12-14T08:48:53;19.13;;;9.15;;
37655;SDS011;23498;50.958;3.124;2023-12-14T08:51:19;21.73;;;9.70;;
37655;SDS011;23498;50.958;3.124;2023-12-14T08:53:46;18.33;;;9.15;;
37655;SDS011;23498;50.958;3.124;2023-12-14T08:56:12;20.35;;;9.10;;
37655;SDS011;23498;50.958;3.124;2023-12-14T08:58:38;20.98;;;9.40;;
37655;SDS011;23498;50.958;3.124;2023-12-14T09:01:04;21.15;;;9.15;;
37655;SDS011;23498;50.958;3.124;2023-12-14T09:03:30;19.42;;;7.57;;
37655;SDS011;23498;50.958;3.124;2023-12-14T09:05:56;19.63;;;8.60;;
37655;SDS011;23498;50.958;3.124;2023-12-14T09:08:23;19.17;;;7.95;;
37655;SDS011;23498;50.958;3.124;2023-12-14T09:10:49;13.52;;;7.90;;
37655;SDS011;23498;50.958;3.124;2023-12-14T09:13:15;19.27;;;8.40;;
37655;SDS011;23498;50.958;3.124;2023-12-14T09:15:41;20.85;;;8.20;;
37655;SDS011;23498;50.958;3.124;2023-12-14T09:18:07;17.75;;;8.07;;
37655;SDS011;23498;50.958;3.124;2023-12-14T09:20:33;17.35;;;8.35;;
37655;SDS011;23498;50.958;3.124;2023-12-14T09:23:02;16.75;;;8.23;;
37655;SDS011;23498;50.958;3.124;2023-12-14T09:25:28;15.40;;;8.27;;
37655;SDS011;23498;50.958;3.124;2023-12-14T09:27:54;18.20;;;8.88;;
37655;SDS011;23498;50.958;3.124;2023-12-14T09:30:20;22.95;;;9.15;;
37655;SDS011;23498;50.958;3.124;2023-12-14T09:32:46;20.65;;;9.20;;
37655;SDS011;23498;50.958;3.124;2023-12-14T09:35:13;20.70;;;9.32;;
37655;SDS011;23498;50.958;3.124;2023-12-14T09:37:40;19.63;;;8.63;;
37655;SDS011;23498;50.958;3.124;2023-12-14T09:40:06;20.95;;;9.10;;
37655;SDS011;23498;50.958;3.124;2023-12-14T09:42:36;21.83;;;9.23;;
37655;SDS011;23498;50.958;3.124;2023-12-14T09:45:03;22.67;;;9.60;;
37655;SDS011;23498;50.958;3.124;2023-12-14T09:47:29;22.30;;;9.55;;
37655;SDS011;23498;50.958;3.124;2023-12-14T09:49:55;16.48;;;8.85;;
37655;SDS011;23498;50.958;3.124;2023-12-14T09:52:21;20.05;;;8.75;;
37655;SDS011;23498;50.958;3.124;2023-12-14T09:54:47;17.45;;;8.15;;
37655;SDS011;23498;50.958;3.124;2023-12-14T09:57:13;17.90;;;7.93;;
37655;SDS011;23498;50.958;3.124;2023-12-14T09:59:40;20.10;;;7.93;;
37655;SDS011;23498;50.958;3.124;2023-12-14T10:02:10;18.20;;;8.50;;
37655;SDS011;23498;50.958;3.124;2023-12-14T10:04:37;18.60;;;7.63;;
37655;SDS011;23498;50.958;3.124;2023-12-14T10:07:03;22.23;;;8.27;;
37655;SDS011;23498;50.958;3.124;2023-12-14T10:09:32;23.70;;;8.07;;
37655;SDS011;23498;50.958;3.124;2023-12-14T10:12:07;13.70;;;6.43;;
37655;SDS011;23498;50.958;3.124;2023-12-14T10:14:34;18.15;;;7.88;;
37655;SDS011;23498;50.958;3.124;2023-12-14T10:17:33;16.48;;;7.32;;
37655;SDS011;23498;50.958;3.124;2023-12-14T10:19:57;15.60;;;7.25;;
37655;SDS011;23498;50.958;3.124;2023-12-14T10:22:25;15.50;;;6.85;;
37655;SDS011;23498;50.958;3.124;2023-12-14T10:24:54;17.20;;;6.43;;
37655;SDS011;23498;50.958;3.124;2023-12-14T10:27:26;17.70;;;6.45;;
37655;SDS011;23498;50.958;3.124;2023-12-14T10:29:52;15.40;;;5.93;;
37655;SDS011;23498;50.958;3.124;2023-12-14T10:32:18;12.63;;;4.43;;
37655;SDS011;23498;50.958;3.124;2023-12-14T10:34:44;11.48;;;4.63;;
37655;SDS011;23498;50.958;3.124;2023-12-14T10:37:10;12.30;;;4.82;;
37655;SDS011;23498;50.958;3.124;2023-12-14T10:39:37;10.15;;;3.88;;
37655;SDS011;23498;50.958;3.124;2023-12-14T10:42:09;11.45;;;3.97;;
37655;SDS011;23498;50.958;3.124;2023-12-14T10:44:35;10.60;;;3.78;;
37655;SDS011;23498;50.958;3.124;2023-12-14T10:47:02;16.52;;;3.15;;
37655;SDS011;23498;50.958;3.124;2023-12-14T10:49:29;9.75;;;3.67;;
37655;SDS011;23498;50.958;3.124;2023-12-14T10:51:56;11.00;;;3.28;;
37655;SDS011;23498;50.958;3.124;2023-12-14T10:54:23;8.95;;;2.72;;
37655;SDS011;23498;50.958;3.124;2023-12-14T10:56:49;11.93;;;2.65;;
37655;SDS011;23498;50.958;3.124;2023-12-14T10:59:15;10.27;;;2.88;;
37655;SDS011;23498;50.958;3.124;2023-12-14T11:01:42;9.35;;;3.08;;
37655;SDS011;23498;50.958;3.124;2023-12-14T11:04:08;12.70;;;3.17;;
37655;SDS011;23498;50.958;3.124;2023-12-14T11:06:38;8.10;;;3.60;;
37655;SDS011;23498;50.958;3.124;2023-12-14T11:09:06;10.88;;;3.53;;
37655;SDS011;23498;50.958;3.124;2023-12-14T11:14:11;11.32;;;3.80;;
37655;SDS011;23498;50.958;3.124;2023-12-14T11:16:38;9.88;;;4.30;;
37655;SDS011;23498;50.958;3.124;2023-12-14T11:24:22;10.63;;;4.10;;
37655;SDS011;23498;50.958;3.124;2023-12-14T11:26:51;13.65;;;3.97;;
37655;SDS011;23498;50.958;3.124;2023-12-14T11:29:17;8.88;;;4.07;;
37655;SDS011;23498;50.958;3.124;2023-12-14T11:31:44;9.50;;;4.05;;
37655;SDS011;23498;50.958;3.124;2023-12-14T11:34:10;13.32;;;4.07;;
37655;SDS011;23498;50.958;3.124;2023-12-14T11:36:36;7.65;;;3.75;;
37655;SDS011;23498;50.958;3.124;2023-12-14T11:39:09;9.68;;;3.80;;
37655;SDS011;23498;50.958;3.124;2023-12-14T11:41:36;10.00;;;4.13;;
37655;SDS011;23498;50.958;3.124;2023-12-14T11:44:03;10.20;;;4.00;;
37655;SDS011;23498;50.958;3.124;2023-12-14T11:46:30;5.95;;;3.03;;
37655;SDS011;23498;50.958;3.124;2023-12-14T11:48:57;7.47;;;3.78;;
37655;SDS011;23498;50.958;3.124;2023-12-14T11:51:23;10.80;;;3.58;;
37655;SDS011;23498;50.958;3.124;2023-12-14T11:53:50;11.55;;;3.20;;
37655;SDS011;23498;50.958;3.124;2023-12-14T11:56:17;9.40;;;3.05;;
37655;SDS011;23498;50.958;3.124;2023-12-14T11:58:43;9.50;;;3.28;;
37655;SDS011;23498;50.958;3.124;2023-12-14T12:01:12;6.30;;;3.05;;
37655;SDS011;23498;50.958;3.124;2023-12-14T12:03:38;9.80;;;3.33;;
37655;SDS011;23498;50.958;3.124;2023-12-14T12:06:04;11.23;;;3.30;;
37655;SDS011;23498;50.958;3.124;2023-12-14T12:08:30;9.02;;;3.20;;
37655;SDS011;23498;50.958;3.124;2023-12-14T12:10:57;10.88;;;2.80;;
37655;SDS011;23498;50.958;3.124;2023-12-14T12:13:23;7.65;;;2.58;;
37655;SDS011;23498;50.958;3.124;2023-12-14T12:15:49;6.20;;;2.00;;
37655;SDS011;23498;50.958;3.124;2023-12-14T12:18:15;8.55;;;2.35;;
37655;SDS011;23498;50.958;3.124;2023-12-14T12:20:41;8.57;;;2.08;;
37655;SDS011;23498;50.958;3.124;2023-12-14T12:23:08;12.27;;;1.98;;
37655;SDS011;23498;50.958;3.124;2023-12-14T12:25:34;8.43;;;2.00;;
37655;SDS011;23498;50.958;3.124;2023-12-14T12:28:01;6.03;;;1.90;;
37655;SDS011;23498;50.958;3.124;2023-12-14T12:30:28;7.90;;;1.90;;
37655;SDS011;23498;50.958;3.124;2023-12-14T12:32:54;9.70;;;2.03;;
37655;SDS011;23498;50.958;3.124;2023-12-14T12:35:21;5.68;;;1.73;;
37655;SDS011;23498;50.958;3.124;2023-12-14T12:37:47;8.10;;;1.80;;
37655;SDS011;23498;50.958;3.124;2023-12-14T12:40:34;7.85;;;2.30;;
37655;SDS011;23498;50.958;3.124;2023-12-14T12:43:00;12.32;;;2.10;;
37655;SDS011;23498;50.958;3.124;2023-12-14T12:45:27;6.57;;;2.03;;
37655;SDS011;23498;50.958;3.124;2023-12-14T12:47:54;7.20;;;2.17;;
37655;SDS011;23498;50.958;3.124;2023-12-14T12:50:20;9.15;;;2.47;;
37655;SDS011;23498;50.958;3.124;2023-12-14T12:52:46;7.22;;;2.10;;
37655;SDS011;23498;50.958;3.124;2023-12-14T12:55:14;4.32;;;1.92;;
37655;SDS011;23498;50.958;3.124;2023-12-14T12:57:40;9.13;;;2.38;;
37655;SDS011;23498;50.958;3.124;2023-12-14T13:00:07;8.90;;;1.83;;
37655;SDS011;23498;50.958;3.124;2023-12-14T13:02:45;11.73;;;2.97;;
37655;SDS011;23498;50.958;3.124;2023-12-14T13:05:11;8.93;;;2.20;;
37655;SDS011;23498;50.958;3.124;2023-12-14T13:07:37;7.70;;;1.92;;
37655;SDS011;23498;50.958;3.124;2023-12-14T13:10:04;8.50;;;1.83;;
37655;SDS011;23498;50.958;3.124;2023-12-14T13:12:34;7.47;;;2.22;;
37655;SDS011;23498;50.958;3.124;2023-12-14T13:15:00;6.57;;;2.08;;
37655;SDS011;23498;50.958;3.124;2023-12-14T13:17:26;7.13;;;1.77;;
37655;SDS011;23498;50.958;3.124;2023-12-14T13:19:52;6.75;;;2.35;;
37655;SDS011;23498;50.958;3.124;2023-12-14T13:22:18;6.97;;;2.13;;
37655;SDS011;23498;50.958;3.124;2023-12-14T13:24:44;7.30;;;1.65;;
37655;SDS011;23498;50.958;3.124;2023-12-14T13:27:10;8.52;;;2.00;;
37655;SDS011;23498;50.958;3.124;2023-12-14T13:29:36;6.65;;;2.40;;
37655;SDS011;23498;50.958;3.124;2023-12-14T13:32:03;10.45;;;1.92;;
37655;SDS011;23498;50.958;3.124;2023-12-14T13:34:29;8.18;;;1.90;;
37655;SDS011;23498;50.958;3.124;2023-12-14T13:36:55;7.05;;;1.67;;
37655;SDS011;23498;50.958;3.124;2023-12-14T13:39:21;8.60;;;1.90;;
37655;SDS011;23498;50.958;3.124;2023-12-14T13:41:47;4.93;;;1.40;;
37655;SDS011;23498;50.958;3.124;2023-12-14T13:44:13;8.98;;;2.13;;
37655;SDS011;23498;50.958;3.124;2023-12-14T13:46:40;7.35;;;2.30;;
37655;SDS011;23498;50.958;3.124;2023-12-14T13:49:05;6.43;;;1.75;;
37655;SDS011;23498;50.958;3.124;2023-12-14T13:51:31;9.68;;;2.25;;
37655;SDS011;23498;50.958;3.124;2023-12-14T13:53:58;9.10;;;2.10;;
37655;SDS011;23498;50.958;3.124;2023-12-14T13:56:24;6.45;;;1.70;;
37655;SDS011;23498;50.958;3.124;2023-12-14T13:58:50;7.47;;;2.17;;
37655;SDS011;23498;50.958;3.124;2023-12-14T14:01:16;6.50;;;2.03;;
37655;SDS011;23498;50.958;3.124;2023-12-14T14:03:42;7.20;;;2.08;;
37655;SDS011;23498;50.958;3.124;2023-12-14T14:06:09;7.15;;;2.30;;
37655;SDS011;23498;50.958;3.124;2023-12-14T14:08:35;8.07;;;1.90;;
37655;SDS011;23498;50.958;3.124;2023-12-14T14:11:01;9.52;;;2.17;;
37655;SDS011;23498;50.958;3.124;2023-12-14T14:13:28;6.28;;;2.10;;
37655;SDS011;23498;50.958;3.124;2023-12-14T14:15:54;8.18;;;2.10;;
37655;SDS011;23498;50.958;3.124;2023-12-14T14:18:20;8.90;;;2.63;;
37655;SDS011;23498;50.958;3.124;2023-12-14T14:20:46;6.95;;;2.40;;
37655;SDS011;23498;50.958;3.124;2023-12-14T14:23:12;9.68;;;2.30;;
37655;SDS011;23498;50.958;3.124;2023-12-14T14:25:38;6.13;;;2.03;;
37655;SDS011;23498;50.958;3.124;2023-12-14T14:28:05;6.30;;;1.85;;
37655;SDS011;23498;50.958;3.124;2023-12-14T14:30:31;5.43;;;2.20;;
37655;SDS011;23498;50.958;3.124;2023-12-14T14:32:57;6.07;;;2.00;;
37655;SDS011;23498;50.958;3.124;2023-12-14T14:35:23;5.05;;;1.70;;
37655;SDS011;23498;50.958;3.124;2023-12-14T14:37:49;5.60;;;1.70;;
37655;SDS011;23498;50.958;3.124;2023-12-14T14:40:15;7.05;;;2.10;;
37655;SDS011;23498;50.958;3.124;2023-12-14T14:42:42;8.43;;;2.53;;